Time;durP1;ratioP1;P1;durP2;ratioP2;P2;SDS_P1;SDS_P2;PMS_P1;PMS_P2;Temp;Humidity;BMP_temperature;BMP_pressure;BME280_temperature;BME280_humidity;BME280_pressure;Samples;Min_cycle;Max_cycle;Signal;HPM_P1;HPM_P2
2021/10/12 00:00:57;;;;;;;;;;;11.30;99.90;;;;;;4900132;29;19930;-70
2021/10/12 00:03:47;;;;;;;;;;;11.30;99.90;;;;;;4900675;29;19928;-70
2021/10/12 00:06:36;;;;;;;;;;;11.30;99.90;;;;;;4919230;29;20040;-70
2021/10/12 00:09:25;;;;;;;;;;;11.40;99.90;;;;;;4900721;29;19932;-70
2021/10/12 00:12:13;;;;;;;;;;;11.30;99.90;;;;;;4900163;29;19960;-70
2021/10/12 00:15:03;;;;;;;;;;;11.30;99.90;;;;;;4907272;29;19960;-72
2021/10/12 00:17:53;;;;;;;;;;;11.30;99.90;;;;;;4899192;29;19928;-70
2021/10/12 00:20:45;;;;;;;;;;;11.40;99.90;;;;;;4899608;29;20272;-70
2021/10/12 00:23:34;;;;;;;;;;;11.30;99.90;;;;;;4900233;29;19938;-72
2021/10/12 00:26:23;;;;;;;;;;;11.30;99.90;;;;;;4899172;29;20249;-70
2021/10/12 00:29:12;;;;;;;;;;;11.30;99.90;;;;;;4900355;29;19927;-70
2021/10/12 00:32:01;;;;;;;;;;;11.30;99.90;;;;;;4910835;29;19927;-70
2021/10/12 00:34:51;;;;;;;;;;;11.30;99.90;;;;;;4919280;29;19927;-70
2021/10/12 00:37:41;;;;;;;;;;;11.30;99.90;;;;;;4922712;29;20005;-71
2021/10/12 00:40:30;;;;;;;;;;;11.30;99.90;;;;;;4925826;29;20031;-70
2021/10/12 00:43:25;;;;;;;;;;;11.30;99.90;;;;;;4927637;29;19934;-70
2021/10/12 00:46:14;;;;;;;;;;;11.30;99.90;;;;;;4924461;28;19927;-70
2021/10/12 00:49:03;;;;;;;;;;;11.30;99.90;;;;;;4923359;29;19935;-70
2021/10/12 00:51:53;;;;;;;;;;;11.30;99.90;;;;;;4926411;28;19931;-70
2021/10/12 00:54:41;;;;;;;;;;;11.20;99.90;;;;;;4924530;29;20029;-70
2021/10/12 00:57:30;;;;;;;;;;;11.20;99.90;;;;;;4932442;29;19926;-70
2021/10/12 01:00:18;;;;;;;;;;;11.20;99.90;;;;;;4929664;29;20336;-71
2021/10/12 01:03:07;;;;;;;;;;;11.20;99.90;;;;;;4929796;29;19931;-70
2021/10/12 01:05:58;;;;;;;;;;;11.20;99.90;;;;;;4924154;29;19931;-71
2021/10/12 01:08:54;;;;;;;;;;;11.20;99.90;;;;;;4925976;28;20384;-70
2021/10/12 01:11:43;;;;;;;;;;;11.20;99.90;;;;;;4926393;29;19942;-70
2021/10/12 01:14:32;;;;;;;;;;;11.20;99.90;;;;;;4925574;29;19931;-70
2021/10/12 01:17:20;;;;;;;;;;;11.30;99.90;;;;;;4924056;29;19927;-70
2021/10/12 01:20:10;;;;;;;;;;;11.30;99.90;;;;;;4929798;28;19979;-70
2021/10/12 01:23:00;;;;;;;;;;;11.30;99.90;;;;;;4931108;29;19934;-70
2021/10/12 01:29:03;;;;;;;;;;;11.30;99.90;;;;;;4929902;29;20007;-70
2021/10/12 01:31:51;;;;;;;;;;;11.20;99.90;;;;;;4920406;29;19927;-70
2021/10/12 01:34:40;;;;;;;;;;;11.30;99.90;;;;;;4924809;29;20372;-70
2021/10/12 01:37:29;;;;;;;;;;;11.30;99.90;;;;;;4926641;28;19927;-70
2021/10/12 01:40:19;;;;;;;;;;;11.30;99.90;;;;;;4924693;29;19931;-70
2021/10/12 01:43:08;;;;;;;;;;;11.30;99.90;;;;;;4924713;29;19927;-70
2021/10/12 01:45:59;;;;;;;;;;;11.20;99.90;;;;;;4929283;28;19931;-71
2021/10/12 01:48:48;;;;;;;;;;;11.20;99.90;;;;;;4929184;29;20402;-70
2021/10/12 01:51:37;;;;;;;;;;;11.20;99.90;;;;;;4923720;28;19950;-71
2021/10/12 01:54:26;;;;;;;;;;;11.10;99.90;;;;;;4932775;28;19934;-71
2021/10/12 01:57:17;;;;;;;;;;;11.20;99.90;;;;;;4928417;28;19929;-70
2021/10/12 02:00:07;;;;;;;;;;;11.20;99.90;;;;;;4927607;29;19934;-70
2021/10/12 02:02:58;;;;;;;;;;;11.20;99.90;;;;;;4927176;29;19933;-70
2021/10/12 02:05:47;;;;;;;;;;;11.20;99.90;;;;;;4923900;29;20430;-71
2021/10/12 02:08:36;;;;;;;;;;;11.10;99.90;;;;;;4929232;28;19934;-70
2021/10/12 02:11:25;;;;;;;;;;;11.10;99.90;;;;;;4929192;29;19927;-70
2021/10/12 02:14:15;;;;;;;;;;;11.10;99.90;;;;;;4936811;28;19927;-70
2021/10/12 02:17:04;;;;;;;;;;;11.10;99.90;;;;;;4930640;28;19934;-70
2021/10/12 02:19:53;;;;;;;;;;;11.10;99.90;;;;;;4931621;29;20022;-70
2021/10/12 02:22:42;;;;;;;;;;;11.10;99.90;;;;;;4928965;29;19966;-70
2021/10/12 02:25:30;;;;;;;;;;;11.10;99.90;;;;;;4932303;29;19934;-70
2021/10/12 02:28:20;;;;;;;;;;;11.10;99.90;;;;;;4927760;29;19934;-71
2021/10/12 02:31:13;;;;;;;;;;;11.10;99.90;;;;;;4911194;29;19931;-70
2021/10/12 02:34:02;;;;;;;;;;;11.10;99.90;;;;;;4923626;29;20447;-70
2021/10/12 02:36:51;;;;;;;;;;;11.10;99.90;;;;;;4929059;29;19943;-70
2021/10/12 02:39:39;;;;;;;;;;;11.10;99.90;;;;;;4931862;28;19926;-70
2021/10/12 02:42:28;;;;;;;;;;;11.10;99.90;;;;;;4925085;29;19931;-70
2021/10/12 02:45:17;;;;;;;;;;;11.10;99.90;;;;;;4922149;29;19927;-71
2021/10/12 02:48:07;;;;;;;;;;;11.10;99.90;;;;;;4928106;29;19994;-70
2021/10/12 02:50:56;;;;;;;;;;;11.00;99.90;;;;;;4931613;29;19934;-71
2021/10/12 02:53:45;;;;;;;;;;;11.00;99.90;;;;;;4930980;28;19927;-70
2021/10/12 02:56:34;;;;;;;;;;;11.00;99.90;;;;;;4924513;28;19931;-70
2021/10/12 02:59:22;;;;;;;;;;;11.00;99.90;;;;;;4924571;29;19938;-70
2021/10/12 03:02:11;;;;;;;;;;;11.10;99.90;;;;;;4920473;28;19934;-70
2021/10/12 03:05:01;;;;;;;;;;;11.10;99.90;;;;;;4923352;29;19938;-70
2021/10/12 03:07:50;;;;;;;;;;;11.10;99.90;;;;;;4924659;29;19927;-70
2021/10/12 03:10:38;;;;;;;;;;;11.10;99.90;;;;;;4919190;29;19939;-70
2021/10/12 03:13:27;;;;;;;;;;;11.10;99.90;;;;;;4920281;29;19927;-71
2021/10/12 03:16:16;;;;;;;;;;;11.10;99.90;;;;;;4925715;28;20001;-70
2021/10/12 03:19:05;;;;;;;;;;;11.10;99.90;;;;;;4914968;29;19934;-70
2021/10/12 03:21:58;;;;;;;;;;;11.10;99.90;;;;;;4929601;29;19933;-70
2021/10/12 03:24:47;;;;;;;;;;;11.10;99.90;;;;;;4930199;29;19927;-70
2021/10/12 03:27:36;;;;;;;;;;;11.10;99.90;;;;;;4927283;28;19934;-70
2021/10/12 03:30:25;;;;;;;;;;;11.10;99.90;;;;;;4926863;29;19934;-71
2021/10/12 03:33:15;;;;;;;;;;;11.10;99.90;;;;;;4922881;29;19934;-70
2021/10/12 03:36:13;;;;;;;;;;;11.10;99.90;;;;;;4928353;28;19934;-70
2021/10/12 03:39:04;;;;;;;;;;;11.10;99.90;;;;;;4930050;28;19933;-70
2021/10/12 03:41:53;;;;;;;;;;;11.10;99.90;;;;;;4926165;29;19934;-70
2021/10/12 03:44:41;;;;;;;;;;;11.10;99.90;;;;;;4927630;29;19927;-70
2021/10/12 03:47:30;;;;;;;;;;;11.10;99.90;;;;;;4929821;29;20387;-71
2021/10/12 03:50:23;;;;;;;;;;;11.10;99.90;;;;;;4923078;29;19931;-71
2021/10/12 03:53:13;;;;;;;;;;;11.10;99.90;;;;;;4936377;28;19927;-71
2021/10/12 03:56:02;;;;;;;;;;;11.10;99.90;;;;;;4922864;29;19931;-72
2021/10/12 03:58:51;;;;;;;;;;;11.10;99.90;;;;;;4928998;29;19933;-71
2021/10/12 04:01:39;;;;;;;;;;;11.10;99.90;;;;;;4922726;28;19927;-72
2021/10/12 04:04:28;;;;;;;;;;;11.00;99.90;;;;;;4929213;28;19965;-72
2021/10/12 04:07:17;;;;;;;;;;;11.10;99.90;;;;;;4925810;28;19927;-73
2021/10/12 04:10:06;;;;;;;;;;;11.10;99.90;;;;;;4925180;29;19934;-71
2021/10/12 04:12:56;;;;;;;;;;;11.10;99.90;;;;;;4920668;29;20291;-72
2021/10/12 04:15:45;;;;;;;;;;;11.10;99.90;;;;;;4929030;28;19934;-74
2021/10/12 04:18:33;;;;;;;;;;;11.10;99.90;;;;;;4924677;29;19953;-71
2021/10/12 04:21:22;;;;;;;;;;;11.10;99.90;;;;;;4913243;29;19934;-71
2021/10/12 04:24:11;;;;;;;;;;;11.10;99.90;;;;;;4923299;29;19934;-73
2021/10/12 04:27:00;;;;;;;;;;;11.10;99.90;;;;;;4919322;28;19934;-70
2021/10/12 04:29:50;;;;;;;;;;;11.10;99.90;;;;;;4926037;29;19931;-70
2021/10/12 04:32:39;;;;;;;;;;;11.00;99.90;;;;;;4917262;29;20360;-71
2021/10/12 04:35:28;;;;;;;;;;;11.00;99.90;;;;;;4923979;28;19927;-71
2021/10/12 04:38:17;;;;;;;;;;;11.00;99.90;;;;;;4921225;28;19949;-71
2021/10/12 04:41:11;;;;;;;;;;;11.00;99.90;;;;;;4909690;29;20010;-69
2021/10/12 04:43:59;;;;;;;;;;;11.00;99.90;;;;;;4903006;29;20044;-71
2021/10/12 04:46:50;;;;;;;;;;;11.00;99.90;;;;;;4906867;29;19927;-69
2021/10/12 04:49:39;;;;;;;;;;;11.10;99.90;;;;;;4899083;29;20077;-68
2021/10/12 04:52:28;;;;;;;;;;;11.10;99.90;;;;;;4906570;29;20010;-69
2021/10/12 04:55:17;;;;;;;;;;;11.10;99.90;;;;;;4920959;28;19935;-70
2021/10/12 04:58:06;;;;;;;;;;;11.10;99.90;;;;;;4908679;29;20307;-68
2021/10/12 05:00:55;;;;;;;;;;;11.20;99.90;;;;;;4907461;28;19927;-70
2021/10/12 05:03:45;;;;;;;;;;;11.20;99.90;;;;;;4908443;29;19928;-69
2021/10/12 05:06:34;;;;;;;;;;;11.20;99.90;;;;;;4902321;29;20376;-68
2021/10/12 05:09:24;;;;;;;;;;;11.20;99.90;;;;;;4912434;29;20010;-69
2021/10/12 05:12:13;;;;;;;;;;;11.30;99.90;;;;;;4911132;29;19933;-69
2021/10/12 05:15:02;;;;;;;;;;;11.30;99.90;;;;;;4930881;28;20349;-69
2021/10/12 05:17:50;;;;;;;;;;;11.30;99.90;;;;;;4903212;29;19932;-69
2021/10/12 05:20:46;;;;;;;;;;;11.40;99.90;;;;;;4900554;29;19938;-69
2021/10/12 05:23:37;;;;;;;;;;;11.40;99.90;;;;;;4903753;29;19938;-69
2021/10/12 05:26:27;;;;;;;;;;;11.40;99.90;;;;;;4929745;29;20030;-70
2021/10/12 05:29:15;;;;;;;;;;;11.40;99.90;;;;;;4902857;29;19943;-69
2021/10/12 05:32:04;;;;;;;;;;;11.40;99.90;;;;;;4912875;28;20111;-70
2021/10/12 05:34:54;;;;;;;;;;;11.40;99.90;;;;;;4929179;29;19934;-69
2021/10/12 05:37:44;;;;;;;;;;;11.40;99.90;;;;;;4926849;29;19979;-69
2021/10/12 05:40:33;;;;;;;;;;;11.40;99.90;;;;;;4926579;29;19935;-69
2021/10/12 05:43:22;;;;;;;;;;;11.30;99.90;;;;;;4938662;28;19927;-69
2021/10/12 05:46:35;;;;;;;;;;;11.30;99.90;;;;;;4924873;29;19928;-69
2021/10/12 05:49:23;;;;;;;;;;;11.30;99.90;;;;;;4938711;29;20287;-69
2021/10/12 05:52:15;;;;;;;;;;;11.30;99.90;;;;;;4935166;29;20371;-69
2021/10/12 05:55:10;;;;;;;;;;;11.30;99.90;;;;;;4925396;28;19931;-69
2021/10/12 05:58:10;;;;;;;;;;;11.20;99.90;;;;;;4929145;29;19935;-69
2021/10/12 06:01:00;;;;;;;;;;;11.20;99.90;;;;;;4928749;28;19957;-71
2021/10/12 06:03:49;;;;;;;;;;;11.20;99.90;;;;;;4933206;29;19926;-69
2021/10/12 06:06:37;;;;;;;;;;;11.10;99.90;;;;;;4933637;29;19937;-69
2021/10/12 06:09:26;;;;;;;;;;;11.10;99.90;;;;;;4936122;29;19934;-70
2021/10/12 06:12:17;;;;;;;;;;;11.10;99.90;;;;;;4934951;28;19931;-70
2021/10/12 06:15:07;;;;;;;;;;;11.10;99.90;;;;;;4939794;29;22516;-69
2021/10/12 06:17:55;;;;;;;;;;;11.10;99.90;;;;;;4939073;29;19927;-71
2021/10/12 06:20:46;;;;;;;;;;;11.10;99.90;;;;;;4931819;28;19927;-70
2021/10/12 06:23:36;;;;;;;;;;;11.10;99.90;;;;;;4933432;29;20391;-70
2021/10/12 06:26:24;;;;;;;;;;;11.10;99.90;;;;;;4923296;29;19927;-70
2021/10/12 06:29:15;;;;;;;;;;;11.10;99.90;;;;;;4929295;29;19935;-70
2021/10/12 06:32:04;;;;;;;;;;;11.10;99.90;;;;;;4938318;28;19927;-70
2021/10/12 06:34:53;;;;;;;;;;;11.00;99.90;;;;;;4934501;29;19934;-69
2021/10/12 06:37:42;;;;;;;;;;;11.00;99.90;;;;;;4919752;29;20299;-70
2021/10/12 06:40:31;;;;;;;;;;;11.00;99.90;;;;;;4925593;29;19938;-70
2021/10/12 06:43:20;;;;;;;;;;;11.00;99.90;;;;;;4920782;29;19938;-70
2021/10/12 06:46:14;;;;;;;;;;;11.00;99.90;;;;;;4934710;28;19926;-69
2021/10/12 06:49:03;;;;;;;;;;;11.00;99.90;;;;;;4927189;29;19931;-70
2021/10/12 06:51:52;;;;;;;;;;;11.00;99.90;;;;;;4920600;29;19934;-69
2021/10/12 06:54:41;;;;;;;;;;;11.00;99.90;;;;;;4920588;28;19930;-70
2021/10/12 06:57:30;;;;;;;;;;;11.00;99.90;;;;;;4920344;29;19994;-70
2021/10/12 07:00:20;;;;;;;;;;;11.00;99.90;;;;;;4918190;28;19933;-69
2021/10/12 07:03:11;;;;;;;;;;;10.90;99.90;;;;;;4926668;28;19928;-70
2021/10/12 07:06:02;;;;;;;;;;;11.00;99.90;;;;;;4921838;29;19928;-69
2021/10/12 07:08:56;;;;;;;;;;;10.90;99.90;;;;;;4922219;29;19927;-70
2021/10/12 07:11:46;;;;;;;;;;;10.90;99.90;;;;;;4921702;28;19931;-69
2021/10/12 07:14:34;;;;;;;;;;;11.00;99.90;;;;;;4936532;29;19927;-70
2021/10/12 07:17:23;;;;;;;;;;;11.00;99.90;;;;;;4933386;28;20367;-70
2021/10/12 07:20:12;;;;;;;;;;;11.00;99.90;;;;;;4937856;29;19937;-70
2021/10/12 07:26:13;;;;;;;;;;;11.00;99.90;;;;;;4933589;29;20013;-71
2021/10/12 07:29:02;;;;;;;;;;;11.10;99.90;;;;;;4936801;28;20391;-71
2021/10/12 07:31:51;;;;;;;;;;;11.10;99.90;;;;;;4932040;28;19937;-70
2021/10/12 07:34:41;;;;;;;;;;;11.20;99.90;;;;;;4943958;28;20303;-70
2021/10/12 07:37:56;;;;;;;;;;;11.20;99.90;;;;;;4933213;29;19934;-71
2021/10/12 07:40:48;;;;;;;;;;;11.30;99.90;;;;;;4927948;29;19974;-70
2021/10/12 07:43:36;;;;;;;;;;;11.30;99.90;;;;;;4932822;29;19966;-71
2021/10/12 07:46:25;;;;;;;;;;;11.30;99.90;;;;;;4932167;28;19927;-71
2021/10/12 07:49:15;;;;;;;;;;;11.20;99.90;;;;;;4924008;29;19935;-70
2021/10/12 07:52:06;;;;;;;;;;;11.20;99.90;;;;;;4944857;29;20073;-71
2021/10/12 07:58:10;;;;;;;;;;;11.20;99.90;;;;;;4928942;29;19982;-71
2021/10/12 08:00:59;;;;;;;;;;;11.20;99.90;;;;;;4936026;28;19927;-71
2021/10/12 08:03:49;;;;;;;;;;;11.20;99.90;;;;;;4940231;29;19930;-71
2021/10/12 08:06:37;;;;;;;;;;;11.20;99.90;;;;;;4936360;29;19930;-72
2021/10/12 08:09:26;;;;;;;;;;;11.30;99.90;;;;;;4940919;29;19933;-71
2021/10/12 08:12:16;;;;;;;;;;;11.30;99.90;;;;;;4924675;29;19927;-71
2021/10/12 08:15:06;;;;;;;;;;;11.40;99.90;;;;;;4942086;29;19934;-71
2021/10/12 08:17:55;;;;;;;;;;;11.40;99.90;;;;;;4951949;29;19927;-71
2021/10/12 08:20:47;;;;;;;;;;;11.50;99.90;;;;;;4952916;28;19965;-69
2021/10/12 08:23:38;;;;;;;;;;;11.50;99.90;;;;;;4942997;28;19931;-72
2021/10/12 08:26:27;;;;;;;;;;;11.50;99.90;;;;;;4930146;29;19933;-70
2021/10/12 08:29:17;;;;;;;;;;;11.40;99.90;;;;;;4949239;29;19956;-70
2021/10/12 08:32:07;;;;;;;;;;;11.40;99.90;;;;;;4928663;28;20404;-70
2021/10/12 08:34:56;;;;;;;;;;;11.40;99.90;;;;;;4932489;29;20006;-70
2021/10/12 08:37:45;;;;;;;;;;;11.40;99.90;;;;;;4919397;29;19928;-70
2021/10/12 08:40:34;;;;;;;;;;;11.50;99.90;;;;;;4925289;29;19941;-70
2021/10/12 08:43:49;;;;;;;;;;;11.60;99.90;;;;;;4930243;29;20392;-70
2021/10/12 08:46:41;;;;;;;;;;;11.60;99.90;;;;;;4934173;29;19955;-71
2021/10/12 08:49:30;;;;;;;;;;;11.70;99.90;;;;;;4928065;29;20033;-71
2021/10/12 08:52:20;;;;;;;;;;;11.80;99.90;;;;;;4933065;29;19951;-71
2021/10/12 08:55:09;;;;;;;;;;;11.80;99.90;;;;;;4937346;29;19960;-69
2021/10/12 08:57:58;;;;;;;;;;;11.90;99.90;;;;;;4929985;29;20362;-70
2021/10/12 09:00:46;;;;;;;;;;;12.00;99.90;;;;;;4926308;29;19927;-71
2021/10/12 09:06:56;;;;;;;;;;;12.00;99.90;;;;;;4931115;29;20038;-69
2021/10/12 09:09:45;;;;;;;;;;;12.00;99.90;;;;;;4928856;29;20045;-69
2021/10/12 09:12:42;;;;;;;;;;;12.00;99.90;;;;;;4925305;29;20026;-70
2021/10/12 09:15:30;;;;;;;;;;;12.10;99.90;;;;;;4940591;29;19933;-70
2021/10/12 09:18:19;;;;;;;;;;;12.10;99.90;;;;;;4938646;29;20287;-69
2021/10/12 09:21:32;;;;;;;;;;;12.10;99.90;;;;;;4937058;29;19931;-69
2021/10/12 09:24:23;;;;;;;;;;;12.10;99.90;;;;;;4937027;28;19933;-71
2021/10/12 09:27:15;;;;;;;;;;;12.20;99.90;;;;;;4934957;29;19927;-69
2021/10/12 09:30:05;;;;;;;;;;;12.30;99.90;;;;;;4927727;28;20065;-70
2021/10/12 09:32:59;;;;;;;;;;;12.40;99.90;;;;;;4933801;29;19927;-70
2021/10/12 09:35:48;;;;;;;;;;;12.40;99.90;;;;;;4937775;29;20284;-70
2021/10/12 09:38:45;;;;;;;;;;;12.50;99.90;;;;;;4934157;29;20502;-69
2021/10/12 09:41:36;;;;;;;;;;;12.40;99.90;;;;;;4925078;29;19935;-70
2021/10/12 09:44:26;;;;;;;;;;;12.40;99.90;;;;;;4933020;29;20283;-69
2021/10/12 09:47:15;;;;;;;;;;;12.40;99.90;;;;;;4936306;28;19933;-69
2021/10/12 09:50:08;;;;;;;;;;;12.40;99.90;;;;;;4936053;29;21220;-70
2021/10/12 09:52:57;;;;;;;;;;;12.40;99.90;;;;;;4936099;29;20383;-70
2021/10/12 09:56:04;;;;;;;;;;;12.50;99.90;;;;;;4934885;29;19934;-71
2021/10/12 09:58:56;;;;;;;;;;;12.50;99.90;;;;;;4940963;29;20564;-71
2021/10/12 10:01:48;;;;;;;;;;;12.40;99.90;;;;;;4932344;28;20285;-70
2021/10/12 10:04:38;;;;;;;;;;;12.50;99.90;;;;;;4935307;29;19927;-70
2021/10/12 10:07:27;;;;;;;;;;;12.50;99.90;;;;;;4942313;28;19931;-71
2021/10/12 10:10:17;;;;;;;;;;;12.50;99.90;;;;;;4920803;29;19927;-72
2021/10/12 10:13:06;;;;;;;;;;;12.50;99.90;;;;;;4940188;29;20302;-73
2021/10/12 10:15:59;;;;;;;;;;;12.50;99.90;;;;;;4933387;28;20422;-72
2021/10/12 10:18:52;;;;;;;;;;;12.50;99.90;;;;;;4937177;28;19934;-71
2021/10/12 10:21:46;;;;;;;;;;;12.50;99.90;;;;;;4927526;29;19995;-72
2021/10/12 10:24:39;;;;;;;;;;;12.50;99.90;;;;;;4933793;28;20033;-73
2021/10/12 10:27:33;;;;;;;;;;;12.40;99.90;;;;;;4934539;29;19927;-73
2021/10/12 10:30:27;;;;;;;;;;;12.40;99.90;;;;;;4934201;29;19937;-73
2021/10/12 10:33:27;;;;;;;;;;;12.40;99.90;;;;;;4945325;29;19927;-73
2021/10/12 10:36:26;;;;;;;;;;;12.40;99.90;;;;;;4933594;29;19927;-73
2021/10/12 10:39:31;;;;;;;;;;;12.40;99.90;;;;;;4927403;29;20368;-73
2021/10/12 10:42:40;;;;;;;;;;;12.40;99.90;;;;;;4934038;28;20013;-73
2021/10/12 10:45:49;;;;;;;;;;;12.40;99.90;;;;;;4933525;28;20291;-73
2021/10/12 10:48:40;;;;;;;;;;;12.40;99.90;;;;;;4928695;29;19931;-74
2021/10/12 10:51:49;;;;;;;;;;;12.40;99.90;;;;;;4924206;29;19927;-72
2021/10/12 10:55:00;;;;;;;;;;;12.40;99.90;;;;;;4927347;28;19931;-73
2021/10/12 10:58:08;;;;;;;;;;;12.40;99.90;;;;;;4920978;29;19927;-72
2021/10/12 11:00:57;;;;;;;;;;;12.40;99.90;;;;;;4925563;28;20272;-72
2021/10/12 11:03:47;;;;;;;;;;;12.50;99.90;;;;;;4933135;28;19933;-72
2021/10/12 11:06:36;;;;;;;;;;;12.50;99.90;;;;;;4926568;29;20383;-72
2021/10/12 11:09:25;;;;;;;;;;;12.50;99.90;;;;;;4930358;29;20377;-73
2021/10/12 11:12:53;;;;;;;;;;;12.60;99.90;;;;;;4930172;29;19953;-73
2021/10/12 11:16:35;;;;;;;;;;;12.60;99.90;;;;;;4922767;29;19927;-72
2021/10/12 11:22:48;;;;;;;;;;;12.60;99.90;;;;;;4932640;29;19927;-72
2021/10/12 11:25:38;;;;;;;;;;;12.70;99.90;;;;;;4934809;29;19934;-72
2021/10/12 11:28:28;;;;;;;;;;;12.70;99.90;;;;;;4939827;29;19933;-72
2021/10/12 11:31:18;;;;;;;;;;;12.70;99.90;;;;;;4938061;28;19935;-73
2021/10/12 11:34:09;;;;;;;;;;;12.70;99.90;;;;;;4928767;29;19933;-73
2021/10/12 11:37:08;;;;;;;;;;;12.70;99.90;;;;;;4932659;29;19931;-72
2021/10/12 11:40:11;;;;;;;;;;;12.70;99.90;;;;;;4927200;29;19927;-73
2021/10/12 11:43:03;;;;;;;;;;;12.70;99.90;;;;;;4930636;29;19934;-73
2021/10/12 11:45:58;;;;;;;;;;;12.70;99.90;;;;;;4929313;29;20021;-73
2021/10/12 11:48:48;;;;;;;;;;;12.70;99.90;;;;;;4932357;29;19935;-73
2021/10/12 11:51:38;;;;;;;;;;;12.70;99.90;;;;;;4927354;29;19928;-72
2021/10/12 11:54:29;;;;;;;;;;;12.70;99.90;;;;;;4930489;29;19926;-73
2021/10/12 11:57:20;;;;;;;;;;;12.70;99.90;;;;;;4928985;29;20419;-72
2021/10/12 12:00:10;;;;;;;;;;;12.70;99.90;;;;;;4921463;29;19935;-72
2021/10/12 12:03:14;;;;;;;;;;;12.70;99.90;;;;;;4930566;29;20365;-73
2021/10/12 12:06:05;;;;;;;;;;;12.70;99.90;;;;;;4936028;29;19937;-73
2021/10/12 12:08:55;;;;;;;;;;;12.70;99.90;;;;;;4923630;29;19937;-74
2021/10/12 12:11:46;;;;;;;;;;;12.70;99.90;;;;;;4928183;28;19931;-73
2021/10/12 12:14:35;;;;;;;;;;;12.70;99.90;;;;;;4925934;29;19941;-72
2021/10/12 12:17:25;;;;;;;;;;;12.70;99.90;;;;;;4935897;28;19935;-72
2021/10/12 12:20:15;;;;;;;;;;;12.80;99.90;;;;;;4928909;29;19926;-72
2021/10/12 12:23:05;;;;;;;;;;;12.70;99.90;;;;;;4922860;29;20367;-72
2021/10/12 12:25:56;;;;;;;;;;;12.70;99.90;;;;;;4922091;29;19951;-73
2021/10/12 12:28:47;;;;;;;;;;;12.80;99.90;;;;;;4924490;29;19931;-72
2021/10/12 12:31:37;;;;;;;;;;;12.80;99.90;;;;;;4927814;29;20402;-73
2021/10/12 12:34:28;;;;;;;;;;;12.80;99.90;;;;;;4927171;29;20009;-70
2021/10/12 12:37:24;;;;;;;;;;;12.80;99.90;;;;;;4931716;29;20404;-71
2021/10/12 12:40:23;;;;;;;;;;;12.80;99.90;;;;;;4929936;29;20030;-71
2021/10/12 12:43:37;;;;;;;;;;;12.80;99.90;;;;;;4940595;29;19931;-70
2021/10/12 12:46:59;;;;;;;;;;;12.80;99.90;;;;;;4944438;28;19927;-70
2021/10/12 12:49:48;;;;;;;;;;;12.80;99.90;;;;;;4942979;29;19927;-70
2021/10/12 12:52:37;;;;;;;;;;;12.80;99.90;;;;;;4936185;29;19941;-71
2021/10/12 12:55:31;;;;;;;;;;;12.80;99.90;;;;;;4927647;29;20334;-70
2021/10/12 12:58:21;;;;;;;;;;;12.80;99.90;;;;;;4932032;29;20065;-70
2021/10/12 13:01:12;;;;;;;;;;;12.80;99.90;;;;;;4934489;29;19949;-70
2021/10/12 13:04:03;;;;;;;;;;;12.80;99.90;;;;;;4943047;29;19998;-70
2021/10/12 13:06:52;;;;;;;;;;;12.80;99.90;;;;;;4940745;29;19933;-71
2021/10/12 13:09:42;;;;;;;;;;;12.80;99.90;;;;;;4946506;28;19927;-70
2021/10/12 13:15:43;;;;;;;;;;;12.80;99.90;;;;;;4945213;29;19927;-71
2021/10/12 13:18:32;;;;;;;;;;;12.80;99.90;;;;;;4935983;29;19981;-71
2021/10/12 13:21:22;;;;;;;;;;;12.80;99.90;;;;;;4942905;29;19974;-71
2021/10/12 13:24:11;;;;;;;;;;;12.80;99.90;;;;;;4934378;29;20012;-71
2021/10/12 13:27:00;;;;;;;;;;;12.80;99.90;;;;;;4932081;29;19927;-71
2021/10/12 13:29:49;;;;;;;;;;;12.70;99.90;;;;;;4931632;29;19927;-71
2021/10/12 13:35:54;;;;;;;;;;;12.70;99.90;;;;;;4910716;29;19928;-71
2021/10/12 13:38:44;;;;;;;;;;;12.60;99.90;;;;;;4913137;29;19934;-70
2021/10/12 13:41:33;;;;;;;;;;;12.60;99.90;;;;;;4910165;29;19927;-71
2021/10/12 13:44:22;;;;;;;;;;;12.60;99.90;;;;;;4907620;29;19928;-71
2021/10/12 13:47:21;;;;;;;;;;;12.60;99.90;;;;;;4912808;29;19931;-70
2021/10/12 13:50:11;;;;;;;;;;;12.60;99.90;;;;;;4920437;29;19931;-71
2021/10/12 13:53:00;;;;;;;;;;;12.60;99.90;;;;;;4908078;29;20018;-71
2021/10/12 13:55:52;;;;;;;;;;;12.60;99.90;;;;;;4909435;29;20072;-70
2021/10/12 13:58:42;;;;;;;;;;;12.60;99.90;;;;;;4915821;29;19931;-70
2021/10/12 14:01:32;;;;;;;;;;;12.50;99.90;;;;;;4910204;29;20284;-70
2021/10/12 14:04:23;;;;;;;;;;;12.50;99.90;;;;;;4920169;29;20395;-69
2021/10/12 14:07:11;;;;;;;;;;;12.60;99.90;;;;;;4911155;29;19959;-68
2021/10/12 14:10:00;;;;;;;;;;;12.60;99.90;;;;;;4913334;29;20015;-69
2021/10/12 14:12:51;;;;;;;;;;;12.60;99.90;;;;;;4908819;29;19931;-69
2021/10/12 14:15:40;;;;;;;;;;;12.60;99.90;;;;;;4916707;29;19927;-70
2021/10/12 14:18:28;;;;;;;;;;;12.60;99.90;;;;;;4918386;29;19970;-72
2021/10/12 14:21:20;;;;;;;;;;;12.60;99.90;;;;;;4925645;29;20391;-73
2021/10/12 14:24:09;;;;;;;;;;;12.60;99.90;;;;;;4934480;29;19931;-72
2021/10/12 14:27:00;;;;;;;;;;;12.60;99.90;;;;;;4918912;29;19931;-73
2021/10/12 14:29:53;;;;;;;;;;;12.60;99.90;;;;;;4926408;29;19946;-73
2021/10/12 14:32:42;;;;;;;;;;;12.60;99.90;;;;;;4925445;29;19927;-73
2021/10/12 14:35:31;;;;;;;;;;;12.60;99.90;;;;;;4938985;29;19926;-73
2021/10/12 14:38:22;;;;;;;;;;;12.60;99.90;;;;;;4934653;28;19928;-72
2021/10/12 14:41:12;;;;;;;;;;;12.60;99.90;;;;;;4930069;29;19942;-71
2021/10/12 14:44:01;;;;;;;;;;;12.60;99.90;;;;;;4933088;29;19935;-72
2021/10/12 14:46:51;;;;;;;;;;;12.60;99.90;;;;;;4929637;28;19935;-71
2021/10/12 14:49:41;;;;;;;;;;;12.60;99.90;;;;;;4924138;28;20070;-72
2021/10/12 14:52:35;;;;;;;;;;;12.60;99.90;;;;;;4932619;28;19935;-72
2021/10/12 14:55:25;;;;;;;;;;;12.60;99.90;;;;;;4928352;28;20352;-72
2021/10/12 14:58:15;;;;;;;;;;;12.60;99.90;;;;;;4930435;28;19927;-72
2021/10/12 15:01:07;;;;;;;;;;;12.60;99.90;;;;;;4914354;28;20143;-71
2021/10/12 15:03:59;;;;;;;;;;;12.60;99.90;;;;;;4911150;28;19934;-72
2021/10/12 15:06:51;;;;;;;;;;;12.50;99.90;;;;;;4919649;29;19954;-74
2021/10/12 15:09:40;;;;;;;;;;;12.50;99.90;;;;;;4918198;28;19937;-71
2021/10/12 15:12:29;;;;;;;;;;;12.50;99.90;;;;;;4920781;29;19938;-69
2021/10/12 15:15:43;;;;;;;;;;;12.50;99.90;;;;;;4913833;28;20427;-69
2021/10/12 15:18:32;;;;;;;;;;;12.50;99.90;;;;;;4926140;28;19927;-71
2021/10/12 15:21:29;;;;;;;;;;;12.40;99.90;;;;;;4923414;28;19938;-69
2021/10/12 15:24:18;;;;;;;;;;;12.40;99.90;;;;;;4927642;28;20406;-68
2021/10/12 15:27:07;;;;;;;;;;;12.30;99.90;;;;;;4923715;29;19930;-69
2021/10/12 15:29:56;;;;;;;;;;;12.30;99.90;;;;;;4924852;28;19927;-69
2021/10/12 15:32:46;;;;;;;;;;;12.30;99.90;;;;;;4923971;28;19953;-68
2021/10/12 15:35:34;;;;;;;;;;;12.20;99.90;;;;;;4910896;28;19935;-69
2021/10/12 15:38:26;;;;;;;;;;;12.20;99.90;;;;;;4915467;29;19954;-69
2021/10/12 15:41:15;;;;;;;;;;;12.20;99.90;;;;;;4928142;29;19930;-69
2021/10/12 15:44:07;;;;;;;;;;;12.20;99.90;;;;;;4913018;28;20428;-69
2021/10/12 15:46:56;;;;;;;;;;;12.20;99.90;;;;;;4904625;28;19966;-68
2021/10/12 15:49:45;;;;;;;;;;;12.20;99.90;;;;;;4909627;29;19942;-69
2021/10/12 15:52:35;;;;;;;;;;;12.20;99.90;;;;;;4925354;28;19935;-69
2021/10/12 15:55:26;;;;;;;;;;;12.20;99.90;;;;;;4924170;29;19931;-69
2021/10/12 15:58:15;;;;;;;;;;;12.30;99.90;;;;;;4925328;29;19937;-69
2021/10/12 16:01:06;;;;;;;;;;;12.30;99.90;;;;;;4922628;28;19986;-69
2021/10/12 16:03:55;;;;;;;;;;;12.30;99.90;;;;;;4930694;28;19927;-71
2021/10/12 16:06:45;;;;;;;;;;;12.30;99.90;;;;;;4919177;29;20009;-69
2021/10/12 16:09:34;;;;;;;;;;;12.30;99.90;;;;;;4929385;29;19930;-67
2021/10/12 16:12:26;;;;;;;;;;;12.30;99.90;;;;;;4929563;29;20241;-70
2021/10/12 16:21:47;;;;;;;;;;;12.30;99.90;;;;;;4912056;28;20319;-72
2021/10/12 16:24:37;;;;;;;;;;;12.30;99.90;;;;;;4911220;29;19938;-71
2021/10/12 16:27:27;;;;;;;;;;;12.30;99.90;;;;;;4911651;29;19943;-70
2021/10/12 16:30:40;;;;;;;;;;;12.30;99.90;;;;;;4913379;28;19927;-69
2021/10/12 16:33:36;;;;;;;;;;;12.20;99.90;;;;;;4926357;29;19927;-68
2021/10/12 16:36:29;;;;;;;;;;;12.20;99.90;;;;;;4919314;29;20330;-70
2021/10/12 16:39:18;;;;;;;;;;;12.20;99.90;;;;;;4920858;29;19927;-72
2021/10/12 16:42:08;;;;;;;;;;;12.10;99.90;;;;;;4914300;29;19931;-70
2021/10/12 16:45:00;;;;;;;;;;;12.10;99.90;;;;;;4916384;28;19927;-70
2021/10/12 16:47:49;;;;;;;;;;;12.10;99.90;;;;;;4911658;28;19927;-70
2021/10/12 16:50:38;;;;;;;;;;;12.10;99.90;;;;;;4912654;28;20011;-70
2021/10/12 16:53:27;;;;;;;;;;;12.10;99.90;;;;;;4910675;29;19958;-71
2021/10/12 16:56:16;;;;;;;;;;;12.00;99.90;;;;;;4920209;28;20245;-70
2021/10/12 16:59:11;;;;;;;;;;;12.10;99.90;;;;;;4934081;28;19963;-70
2021/10/12 17:02:02;;;;;;;;;;;12.10;99.90;;;;;;4931934;28;19930;-71
2021/10/12 17:04:50;;;;;;;;;;;12.00;99.90;;;;;;4938870;29;20353;-70